Tiempo atmosférico en la estación meteorológica de Valverde del Fresno, Cáceres (498 m.)



Fecha
DESCASC
Temp. máxima en grados centígrados (hora)
DESCASC
Temp. mínima en grados centígrados (hora)
DESCASC
Temp. media en grados centígrados
DESCASC
Racha de viento máxima en m/sg (hora)
DESCASC
Velocidad máxima media en intervalos de 10 minutos(hora)
DESCASC
Precipitaciones diarias en mm
DESCASC
Precipitaciones de 00:00 a 06:00 en mm
DESCASC
Precipitaciones de 06:00 a 12:00 en mm
DESCASC
Precipitaciones de 12:00 a 18:00 en mm
DESCASC
Precipitaciones de 18:00 a 24:00 en mm
DESCASC
10-11-2019 11.7 (13:10) 8 (00:00) 9.8 12.5 (11:00) 6.11 (11:00) 0 0 0 0 0
09-11-2019 12.1 (12:00) 5.6 (00:00) 8.9 9.44 (23:40) 4.17 (01:40) 2 0 0 2 0
08-11-2019 13.4 (15:40) 4.9 (00:00) 9.1 9.44 (16:20) 4.72 (12:20) 0 0 0 0 0
07-11-2019 15 (13:50) 7.2 (00:00) 11.1 13.61 (06:30) 7.22 (06:30) 1.8 1.8 0 0 0
06-11-2019 15.2 (12:50) 8.7 (00:00) 11.9 6.94 (04:00) 3.33 (15:10) 0.8 0 0 0 0.8
05-11-2019 15.9 (15:30) 6.3 (00:00) 11.1 11.11 (13:30) 5.83 (13:30) 0.2 0.2 0 0 0
04-11-2019 15.8 (13:20) 9.2 (00:00) 12.5 11.67 (18:40) 6.67 (14:30) 1.2 0 0 1.2 0
03-11-2019 19.3 (15:40) 12.7 (00:00) 16 10 (13:20) 5.83 (13:20) 0.4 0.2 0 0 0.2
02-11-2019 17.7 (14:20) 12.9 (00:00) 15.3 7.78 (15:10) 4.44 (15:10) 1.6 0.8 0.2 0 0.6
01-11-2019 21.3 (14:40) 14 (00:00) 17.6 10 (15:50) 4.72 (14:20) 3.6 0 0.2 3.2 0.2
31-10-2019 20.2 (15:30) 14 (07:20) 17.1 3.33 (16:30) 1.67 (16:30) 0.2 0 0.2 0 0
30-10-2019 16.6 (12:50) 13.5 (00:00) 15.1 2.78 (14:10) 1.67 (17:00) 8.8 0 0.6 7.6 0.6
29-10-2019 19.8 (14:40) 11.8 (00:00) 15.8 6.67 (14:30) 3.89 (14:50) 1.4 1.4 0 0 0
28-10-2019 17.6 (15:00) 10.9 (00:00) 14.3 3.33 (13:00) 2.22 (05:30) 0 0 0 0 0
27-10-2019 22.3 (14:10) 10.9 (00:00) 16.6 5.83 (12:40) 3.61 (12:40) 0 0 0 0 0
26-10-2019 23.6 (16:20) 9.3 (00:00) 16.5 6.11 (15:10) 3.33 (15:30) 0 0 0 0 0
25-10-2019 22.3 (17:20) 7.8 (00:00) 15 5.56 (15:20) 3.33 (20:00) 0 0 0 0 0
24-10-2019 19.7 (16:50) 6.3 (00:00) 13 5.28 (06:20) 3.61 (06:20) 0 0 0 0 0
23-10-2019 12.2 (00:00) 9.7 (00:00) 10.9 9.17 (15:50) 4.72 (16:00) 2.2 0.2 1.4 0.4 0.2
22-10-2019 16.2 (17:10) 6 (00:00) 11.1 14.72 (16:20) 7.78 (17:50) 0 0 0 0 0
21-10-2019 17.2 (16:30) 5.5 (00:00) 11.4 7.78 (23:50) 3.89 (23:50) 0.4 0 0 0 0.4
20-10-2019 15.6 (18:00) 8.1 (00:00) 11.9 9.17 (13:20) 4.44 (13:00) 0 0 0 0 0
19-10-2019 15 (19:10) 8.7 (00:00) 11.8 10 (16:20) 5.28 (16:20) 16.6 0 0.6 15.8 0.2
18-10-2019 20.3 (16:50) 12.1 (00:00) 16.2 7.22 (18:00) 4.17 (18:00) 3.6 3.6 0 0 0
17-10-2019 17 (23:10) 13.6 (00:00) 15.3 5.28 (18:30) 3.06 (18:50) 26.6 9.4 8.6 6.2 2.4
16-10-2019 17.5 (16:20) 7.9 (00:00) 12.7 5.83 (17:50) 3.61 (17:40) 0 0 0 0 0
15-10-2019 17.4 (16:50) 4.7 (00:00) 11 6.11 (15:10) 3.61 (15:50) 0 0 0 0 0
14-10-2019 16.4 (00:20) 8.5 (00:00) 12.4 11.67 (06:20) 6.11 (06:30) 26.6 0 13.6 12.8 0.2

Gráficas

Temp. máximas Temp. mínimas Temp. medias Precipitaciones Rachas de viento máximas Velocidades máximas media en intervalos de 10 minutos

Datos horarios

Fecha y hora oficial Temperatura (ºC) Velocidad del viento (km/h) Dirección del viento Racha (km/h) Dirección de racha Precipitación (mm) Presión (hPa) Tendencia (hPa) Humedad (%)
2019-11-12 23:00:00 11.7 0 Calma 4 Nordeste 0 -- -- 86
2019-11-12 22:00:00 12 0 Calma 6 Sudoeste 0 -- -- 84
2019-11-12 21:00:00 12 5 Sudoeste 12 Sudoeste 0 -- -- 83
2019-11-12 20:00:00 12.1 5 Oeste 19 Oeste 0 -- -- 80
2019-11-12 19:00:00 12.5 10 Oeste 18 Oeste 0 -- -- 77
2019-11-12 18:00:00 13.9 9 Oeste 21 Oeste 0 -- -- 70
2019-11-12 17:00:00 14.8 11 Oeste 22 Oeste 0 -- -- 62
2019-11-12 16:00:00 15 2 Este 26 Noroeste 0 -- -- 61
2019-11-12 15:00:00 15 9 Noroeste 26 Noroeste 0 -- -- 60
2019-11-12 14:00:00 14.9 11 Noroeste 30 Oeste 0 -- -- 55
2019-11-12 13:00:00 14.6 15 Norte 31 Noroeste 0 -- -- 53
2019-11-12 12:00:00 13 11 Norte 33 Norte 0 -- -- 56
2019-11-12 11:00:00 11.8 8 Norte 31 Norte 0 -- -- 57
2019-11-12 10:00:00 10.2 12 Norte 27 Norte 0 -- -- 63
2019-11-12 09:00:00 7.2 2 Oeste 11 Sudoeste 0 -- -- 72
2019-11-12 08:00:00 6.5 4 Oeste 12 Sudeste 0 -- -- 73
2019-11-12 07:00:00 7.5 6 Sudeste 16 Noroeste 0 -- -- 68
2019-11-12 06:00:00 8.1 6 Oeste 20 Noroeste 0 -- -- 66
2019-11-12 05:00:00 8.3 10 Norte 27 Noroeste 0 -- -- 68
2019-11-12 04:00:00 8.9 18 Norte 42 Norte 0 -- -- 66
2019-11-12 03:00:00 9.5 23 Norte 39 Norte 0 -- -- 65
2019-11-12 02:00:00 10 20 Norte 36 Norte 0 -- -- 63
2019-11-12 01:00:00 9.7 24 Norte 47 Norte 0 -- -- 65
2019-11-12 00:00:00 9.9 18 Norte 37 Norte 0 -- -- 66
2019-11-11 23:00:00 10.3 16 Norte 30 Norte 0 -- -- 66
2019-11-11 22:00:00 10.7 10 Nordeste 24 Norte 0 -- -- 66
2019-11-11 21:00:00 11.5 8 Este 29 Norte 0 -- -- 64
2019-11-11 20:00:00 12.3 10 Norte 22 Norte 0 -- -- 63
2019-11-11 19:00:00 13.2 4 Sudoeste 15 Norte 0 -- -- 70
2019-11-11 18:00:00 15.2 6 Noroeste 26 Norte 0 -- -- 68
2019-11-11 17:00:00 17 9 Norte 31 Noroeste 0 -- -- 62
2019-11-11 16:00:00 16.5 7 Noroeste 28 Noroeste 0 -- -- 64
2019-11-11 15:00:00 16.9 7 Norte 20 Noroeste 0 -- -- 63
2019-11-11 14:00:00 17.1 11 Oeste 28 Noroeste 0 -- -- 66
2019-11-11 13:00:00 13.7 4 Este 9 Sudeste 0 -- -- 81
2019-11-11 12:00:00 11.9 4 Este 8 Este 0 -- -- 84
2019-11-11 11:00:00 11.1 0 Calma 6 Norte 0 -- -- 85
2019-11-11 10:00:00 10 0 Calma 5 Noroeste 0 -- -- 89
2019-11-11 09:00:00 9.3 0 Calma 7 Norte 0 -- -- 92
2019-11-11 08:00:00 9.3 2 Norte 5 Norte 0 -- -- 91
2019-11-11 07:00:00 9.2 3 Norte 6 Norte 0 -- -- 91
2019-11-11 06:00:00 9.3 2 Este 4 Nordeste 0 -- -- 90
2019-11-11 05:00:00 9.2 3 Nordeste 6 Este 0 -- -- 90
2019-11-11 04:00:00 9.3 0 Calma 5 Nordeste 0 -- -- 90
2019-11-11 03:00:00 9.4 2 Noroeste 9 Noroeste 0 -- -- 87
2019-11-11 02:00:00 9.4 3 Sudoeste 9 Noroeste 0 -- -- 86
2019-11-11 01:00:00 9.7 5 Oeste 19 Oeste 0 -- -- 83
2019-11-11 00:00:00 9.7 8 Oeste 19 Oeste 0 -- -- 81
2019-11-10 23:00:00 9.6 7 Noroeste 18 Oeste 0 -- -- 80
2019-11-10 22:00:00 9.5 6 Noroeste 24 Norte 0 -- -- 80
2019-11-10 21:00:00 9.4 8 Noroeste 18 Noroeste 0 -- -- 79
2019-11-10 20:00:00 9.3 8 Noroeste 35 Noroeste 0 -- -- 79
2019-11-10 19:00:00 9.4 16 Noroeste 36 Noroeste 0 -- -- 77
2019-11-10 18:00:00 9.5 11 Noroeste 35 Noroeste 0 -- -- 75
2019-11-10 17:00:00 10.3 18 Noroeste 35 Noroeste 0 -- -- 72
2019-11-10 16:00:00 10.5 11 Noroeste 31 Norte 0 -- -- 71
2019-11-10 15:00:00 10.7 12 Noroeste 34 Noroeste 0 -- -- 69
2019-11-10 14:00:00 10.3 18 Noroeste 44 Norte 0 -- -- 70
2019-11-10 13:00:00 11.5 14 Noroeste 36 Noroeste 0 -- -- 59
2019-11-10 12:00:00 11.2 18 Noroeste 44 Noroeste 0 -- -- 60
2019-11-10 11:00:00 10.9 22 Noroeste 45 Noroeste 0 -- -- 59
2019-11-10 10:00:00 10 16 Norte 40 Norte 0 -- -- 63
2019-11-10 09:00:00 8.3 15 Noroeste 36 Noroeste 0 -- -- 70
2019-11-10 08:00:00 8.1 16 Norte 37 Norte 0 -- -- 71
2019-11-10 07:00:00 8.3 13 Noroeste 33 Noroeste 0 -- -- 71
2019-11-10 06:00:00 8.8 12 Noroeste 29 Noroeste 0 -- -- 72
2019-11-10 05:00:00 9.2 14 Noroeste 44 Noroeste 0 -- -- 73
2019-11-10 04:00:00 9.3 9 Noroeste 33 Noroeste 0 -- -- 72
2019-11-10 03:00:00 9.9 12 Noroeste 39 Noroeste 0 -- -- 72
2019-11-10 02:00:00 10.2 16 Noroeste 40 Noroeste 0 -- -- 72
2019-11-10 01:00:00 10.3 10 Noroeste 27 Noroeste 0 -- -- 74
2019-11-10 00:00:00 10.1 9 Noroeste 34 Noroeste 0 -- -- 74
2019-11-09 23:00:00 9.6 4 Norte 18 Oeste 0 -- -- 80
2019-11-09 22:00:00 8.8 3 Sudoeste 10 Oeste 0 -- -- 88
2019-11-09 21:00:00 8.7 3 Oeste 10 Norte 0 -- -- 97
2019-11-09 20:00:00 8.6 0 Calma 7 Norte 0 -- -- 97
2019-11-09 19:00:00 9.2 2 Norte 5 Norte 0 -- -- 96
2019-11-09 18:00:00 10 0 Calma 4 Nordeste 0.2 -- -- 96
2019-11-09 17:00:00 9.5 3 Nordeste 5 Nordeste 1.4 -- -- 96
2019-11-09 16:00:00 9.4 3 Nordeste 5 Este 0.4 -- -- 93
2019-11-09 15:00:00 9.9 2 Noroeste 9 Oeste 0 -- -- 87
2019-11-09 14:00:00 10.9 4 Sudoeste 9 Sudoeste 0 -- -- 74
2019-11-09 13:00:00 11.3 6 Sur 10 Sudoeste 0 -- -- 66
2019-11-09 12:00:00 12.1 4 Sur 10 Sur 0 -- -- 61
2019-11-09 11:00:00 9.6 2 Nordeste 5 Este 0 -- -- 71
2019-11-09 10:00:00 8.9 4 Este 6 Nordeste 0 -- -- 75
2019-11-09 09:00:00 6.4 3 Este 6 Nordeste 0 -- -- 82
2019-11-09 08:00:00 6.8 4 Noroeste 13 Noroeste 0 -- -- 78
2019-11-09 07:00:00 6.8 7 Noroeste 13 Noroeste 0 -- -- 78
2019-11-09 06:00:00 7.5 8 Noroeste 21 Noroeste 0 -- -- 74
2019-11-09 05:00:00 6.5 2 Noroeste 28 Norte 0 -- -- 76
2019-11-09 04:00:00 7.7 8 Sudoeste 25 Sudoeste 0 -- -- 70
2019-11-09 03:00:00 8.1 4 Noroeste 20 Oeste 0 -- -- 69
2019-11-09 02:00:00 7.8 10 Noroeste 29 Oeste 0 -- -- 72
2019-11-09 01:00:00 7.8 14 Noroeste 32 Oeste 0 -- -- 72
2019-11-09 00:00:00 7.5 8 Noroeste 18 Oeste 0 -- -- 75
2019-11-08 23:00:00 7.7 10 Noroeste 18 Noroeste 0 -- -- 73
2019-11-08 22:00:00 8.1 10 Noroeste 17 Noroeste 0 -- -- 70
2019-11-08 21:00:00 7.7 7 Noroeste 14 Noroeste 0 -- -- 70
2019-11-08 20:00:00 8.3 5 Norte 18 Noroeste 0 -- -- 66
2019-11-08 19:00:00 9.3 8 Noroeste 27 Noroeste 0 -- -- 61
2019-11-08 18:00:00 10.8 13 Noroeste 28 Noroeste 0 -- -- 56
2019-11-08 17:00:00 12.3 13 Noroeste 34 Oeste 0 -- -- 54
2019-11-08 16:00:00 12.8 10 Noroeste 28 Noroeste 0 -- -- 50
2019-11-08 15:00:00 12.6 16 Noroeste 31 Noroeste 0 -- -- 51
2019-11-08 14:00:00 12.9 10 Norte 28 Norte 0 -- -- 53
2019-11-08 13:00:00 11.6 10 Norte 31 Noroeste 0 -- -- 55
2019-11-08 12:00:00 11.2 12 Noroeste 29 Norte 0 -- -- 58
2019-11-08 11:00:00 9.3 5 Noroeste 28 Noroeste 0 -- -- 63
2019-11-08 10:00:00 8 5 Oeste 20 Nordeste 0 -- -- 68
2019-11-08 09:00:00 6.9 5 Sudeste 24 Sudoeste 0 -- -- 69
2019-11-08 08:00:00 5 2 Nordeste 9 Sudoeste 0 -- -- 76
2019-11-08 07:00:00 5.5 4 Nordeste 12 Sudoeste 0 -- -- 75
2019-11-08 06:00:00 5.3 4 Sur 19 Noroeste 0 -- -- 76
2019-11-08 05:00:00 5.9 4 Oeste 21 Noroeste 0 -- -- 73
2019-11-08 04:00:00 6.4 11 Noroeste 21 Noroeste 0 -- -- 73
2019-11-08 03:00:00 6.4 3 Noroeste 18 Oeste 0 -- -- 73
2019-11-08 02:00:00 6.7 5 Noroeste 12 Norte 0 -- -- 74
2019-11-08 01:00:00 7.1 6 Noroeste 23 Noroeste 0 -- -- 72
2019-11-08 00:00:00 7.2 4 Noroeste 14 Oeste 0 -- -- 74
2019-11-07 23:00:00 7.3 4 Oeste 21 Oeste 0 -- -- 75
2019-11-07 22:00:00 8 6 Oeste 21 Noroeste 0 -- -- 71
2019-11-07 21:00:00 8 9 Noroeste 24 Noroeste 0 -- -- 73
2019-11-07 20:00:00 8.3 9 Noroeste 37 Noroeste 0 -- -- 73
2019-11-07 19:00:00 8.8 16 Noroeste 36 Noroeste 0 -- -- 69
2019-11-07 18:00:00 9.9 19 Noroeste 35 Noroeste 0 -- -- 65
2019-11-07 17:00:00 11.2 9 Noroeste 46 Noroeste 0 -- -- 67
2019-11-07 16:00:00 12.8 14 Noroeste 45 Noroeste 0 -- -- 57
2019-11-07 15:00:00 14.6 22 Oeste 39 Oeste 0 -- -- 46
2019-11-07 14:00:00 14.8 13 Noroeste 42 Noroeste 0 -- -- 47
2019-11-07 13:00:00 13.1 19 Noroeste 44 Oeste 0 -- -- 56
2019-11-07 12:00:00 12.2 11 Noroeste 32 Noroeste 0 -- -- 58
2019-11-07 11:00:00 10.5 10 Noroeste 22 Norte 0 -- -- 65
2019-11-07 10:00:00 10.2 8 Noroeste 25 Noroeste 0 -- -- 70
2019-11-07 09:00:00 9.7 5 Noroeste 17 Noroeste 0 -- -- 71
2019-11-07 08:00:00 9.2 6 Noroeste 28 Nordeste 0 -- -- 72
2019-11-07 07:00:00 9.6 6 Sur 49 Norte 0 -- -- 70
2019-11-07 06:00:00 10.4 20 Noroeste 44 Norte 0 -- -- 73
2019-11-07 05:00:00 11 7 Oeste 14 Oeste 0 -- -- 96
2019-11-07 04:00:00 11.8 3 Noroeste 6 Oeste 0 -- -- 98
2019-11-07 03:00:00 11.7 0 Calma 4 Norte 0.2 -- -- 97
2019-11-07 02:00:00 11.5 0 Calma 4 Este 1.2 -- -- 98
2019-11-07 01:00:00 11.5 2 Nordeste 5 Nordeste 0.4 -- -- 97
2019-11-07 00:00:00 11.2 2 Este 5 Este 0.2 -- -- 97
2019-11-06 23:00:00 11.4 0 Calma 4 Nordeste 0.4 -- -- 96
2019-11-06 22:00:00 11.7 3 Nordeste 5 Noroeste 0.2 -- -- 93
2019-11-06 21:00:00 12.1 0 Calma 4 Oeste 0 -- -- 86
2019-11-06 20:00:00 12.5 0 Calma -- -- 0 -- -- 83
2019-11-06 19:00:00 12.9 0 Calma 3 Noroeste 0 -- -- 79
2019-11-06 18:00:00 13.1 0 Calma 9 Noroeste 0 -- -- 76
2019-11-06 17:00:00 13.4 5 Noroeste 15 Oeste 0 -- -- 73
2019-11-06 16:00:00 13.8 6 Oeste 21 Sudoeste 0 -- -- 69
2019-11-06 15:00:00 14.3 12 Oeste 21 Oeste 0 -- -- 64
2019-11-06 14:00:00 14.8 6 Noroeste 15 Norte 0 -- -- 60
2019-11-06 13:00:00 14.9 6 Noroeste 22 Noroeste 0 -- -- 58
2019-11-06 12:00:00 13.8 9 Noroeste 20 Noroeste 0 -- -- 63
2019-11-06 11:00:00 12.5 8 Noroeste 20 Noroeste 0 -- -- 70
2019-11-06 10:00:00 11.1 9 Noroeste 22 Oeste 0 -- -- 73
2019-11-06 09:00:00 10.4 4 Noroeste 19 Noroeste 0 -- -- 72
2019-11-06 08:00:00 10 12 Norte 23 Norte 0 -- -- 74
2019-11-06 07:00:00 9.8 12 Noroeste 21 Noroeste 0 -- -- 73
2019-11-06 06:00:00 8.7 6 Noroeste 13 Oeste 0 -- -- 80
2019-11-06 05:00:00 9 5 Noroeste 17 Oeste 0 -- -- 80
2019-11-06 04:00:00 9.5 10 Noroeste 25 Noroeste 0 -- -- 78
2019-11-06 03:00:00 9.2 11 Noroeste 22 Noroeste 0 -- -- 80
2019-11-06 02:00:00 9.2 5 Norte 12 Oeste 0 -- -- 80
2019-11-06 01:00:00 9.3 5 Noroeste 20 Noroeste 0 -- -- 79
2019-11-06 00:00:00 9.8 0 Calma 15 Oeste 0 -- -- 79
2019-11-05 23:00:00 9.9 3 Norte 13 Oeste 0 -- -- 80
2019-11-05 22:00:00 10.2 3 Noroeste 9 Noroeste 0 -- -- 77
2019-11-05 21:00:00 10.6 2 Oeste 10 Oeste 0 -- -- 74
2019-11-05 20:00:00 11.2 0 Calma 13 Oeste 0 -- -- 73
2019-11-05 19:00:00 12.7 5 Oeste 20 Sudoeste 0 -- -- 67
2019-11-05 18:00:00 14.1 6 Noroeste 24 Noroeste 0 -- -- 63
2019-11-05 17:00:00 15.6 13 Noroeste 34 Noroeste 0 -- -- 56
2019-11-05 16:00:00 15.4 16 Noroeste 38 Noroeste 0 -- -- 57
2019-11-05 15:00:00 15.8 15 Oeste 36 Oeste 0 -- -- 58
2019-11-05 14:00:00 14.9 15 Noroeste 40 Noroeste 0 -- -- 62
2019-11-05 13:00:00 15.2 18 Noroeste 39 Noroeste 0 -- -- 57
2019-11-05 12:00:00 15 15 Oeste 35 Oeste 0 -- -- 63
2019-11-05 11:00:00 12.3 5 Oeste 10 Este 0 -- -- 82
2019-11-05 10:00:00 9.8 3 Sudeste 7 Este 0 -- -- 90
2019-11-05 09:00:00 8.1 0 Calma 5 Sudoeste 0 -- -- 92
2019-11-05 08:00:00 6.7 4 Oeste 13 Norte 0 -- -- 94
2019-11-05 07:00:00 6.8 10 Norte 15 Norte 0 -- -- 93
2019-11-05 06:00:00 6.8 2 Este 13 Este 0 -- -- 92
2019-11-05 05:00:00 6.9 7 Oeste 11 Oeste 0 -- -- 91
2019-11-05 04:00:00 7.5 4 Noroeste 12 Sudoeste 0 -- -- 90
2019-11-05 03:00:00 8.6 5 Oeste 8 Sudoeste 0 -- -- 89
2019-11-05 02:00:00 8.8 5 Oeste 14 Noroeste 0.2 -- -- 90
2019-11-05 01:00:00 8.4 3 Norte 9 Norte 0 -- -- 92
2019-11-05 00:00:00 9.6 2 Nordeste 12 Oeste 0 -- -- 90
2019-11-04 23:00:00 9.5 4 Oeste 8 Oeste 0 -- -- 89
2019-11-04 22:00:00 9.6 5 Oeste 14 Sudoeste 0 -- -- 87
2019-11-04 21:00:00 11 6 Sudoeste 23 Oeste 0 -- -- 83
2019-11-04 20:00:00 12 9 Oeste 28 Oeste 0 -- -- 81
2019-11-04 19:00:00 12.8 13 Oeste 42 Oeste 0 -- -- 77
2019-11-04 18:00:00 13.9 5 Sudoeste 17 Oeste 0 -- -- 84
2019-11-04 17:00:00 14.7 5 Sudoeste 27 Oeste 0 -- -- 83
2019-11-04 16:00:00 14.6 10 Sudoeste 32 Sudoeste 0 -- -- 94
2019-11-04 15:00:00 14.4 15 Sudoeste 39 Sudoeste 0.8 -- -- 95
2019-11-04 14:00:00 14.8 23 Sudoeste 42 Oeste 0.4 -- -- 91
2019-11-04 13:00:00 15.6 18 Sudoeste 40 Sudoeste 0 -- -- 82
2019-11-04 12:00:00 14.9 14 Sudoeste 32 Oeste 0 -- -- 84
2019-11-04 11:00:00 14.2 11 Sudoeste 26 Sudoeste 0 -- -- 89
2019-11-04 10:00:00 13.7 9 Sudoeste 20 Sudoeste 0 -- -- 87
2019-11-04 09:00:00 13.2 7 Sudoeste 17 Oeste 0 -- -- 90
2019-11-04 08:00:00 12.9 2 Sudeste 7 Nordeste 0 -- -- 94
2019-11-04 07:00:00 13 6 Sudoeste 23 Sudoeste 0 -- -- 94
2019-11-04 06:00:00 13 3 Sudoeste 18 Oeste 0 -- -- 92
2019-11-04 05:00:00 13 8 Sudoeste 19 Sudoeste 0 -- -- 91
2019-11-04 04:00:00 12.7 2 Noroeste 4 Noroeste 0 -- -- 95
2019-11-04 03:00:00 13 3 Norte 12 Oeste 0 -- -- 95
2019-11-04 02:00:00 13.6 5 Sudoeste 17 Sudoeste 0 -- -- 95
2019-11-04 01:00:00 13.5 0 Calma 5 Este 0 -- -- 95
2019-11-04 00:00:00 13.7 3 Sudoeste 14 Oeste 0.2 -- -- 93
2019-11-03 23:00:00 14.3 3 Sudoeste 12 Oeste 0 -- -- 86
2019-11-03 22:00:00 14.3 5 Sudoeste 12 Oeste 0 -- -- 84
2019-11-03 21:00:00 14.2 4 Oeste 10 Oeste 0 -- -- 82
2019-11-03 20:00:00 14.3 5 Oeste 16 Oeste 0 -- -- 79
2019-11-03 19:00:00 15 4 Oeste 22 Sudoeste 0 -- -- 75
2019-11-03 18:00:00 15.8 9 Oeste 19 Oeste 0 -- -- 70
2019-11-03 17:00:00 16.8 11 Oeste 20 Sudoeste 0 -- -- 65
2019-11-03 16:00:00 18.6 7 Noroeste 15 Norte 0 -- -- 57
2019-11-03 15:00:00 17 9 Noroeste 29 Noroeste 0 -- -- 62
2019-11-03 14:00:00 16.9 15 Noroeste 36 Oeste 0 -- -- 61
2019-11-03 13:00:00 16.4 18 Noroeste 33 Noroeste 0 -- -- 60
2019-11-03 12:00:00 15.2 8 Noroeste 27 Noroeste 0 -- -- 65
2019-11-03 11:00:00 14.6 8 Noroeste 28 Noroeste 0 -- -- 66
2019-11-03 10:00:00 14.8 16 Noroeste 31 Noroeste 0 -- -- 62
2019-11-03 09:00:00 13.7 8 Noroeste 29 Oeste 0 -- -- 79
2019-11-03 08:00:00 13.7 8 Sudoeste 17 Sudoeste 0 -- -- 91
2019-11-03 07:00:00 13.4 0 Calma 8 Nordeste 0 -- -- 96
2019-11-03 06:00:00 13.3 6 Este 10 Este 0 -- -- 97
2019-11-03 05:00:00 13.2 5 Sudoeste 13 Sudoeste 0.2 -- -- 95
2019-11-03 04:00:00 12.7 5 Nordeste 10 Nordeste 0 -- -- 95
2019-11-03 03:00:00 12.7 3 Nordeste 6 Sudoeste 0 -- -- 94
2019-11-03 02:00:00 12.7 4 Sudoeste 14 Sur 0 -- -- 92
2019-11-03 01:00:00 13 4 Sudoeste 12 Oeste 0 -- -- 94
2019-11-03 00:00:00 13 4 Sudoeste 25 Sudoeste 0.6 -- -- 94
2019-11-02 23:00:00 13.7 4 Sudoeste 18 Oeste 0 -- -- 83
2019-11-02 22:00:00 14 8 Oeste 14 Sudoeste 0 -- -- 78
2019-11-02 21:00:00 14.1 4 Oeste 16 Oeste 0 -- -- 78
2019-11-02 20:00:00 14.8 6 Sudoeste 24 Oeste 0 -- -- 74
2019-11-02 19:00:00 15.4 12 Oeste 27 Oeste 0 -- -- 72
2019-11-02 18:00:00 15.9 9 Oeste 27 Oeste 0 -- -- 74
2019-11-02 17:00:00 16.5 8 Oeste 25 Oeste 0 -- -- 72
2019-11-02 16:00:00 17.5 14 Oeste 28 Oeste 0 -- -- 68
2019-11-02 15:00:00 17.6 12 Oeste 24 Sudoeste 0 -- -- 80
2019-11-02 14:00:00 17.6 10 Sudoeste 24 Sudoeste 0 -- -- 81
2019-11-02 13:00:00 16.9 9 Sudoeste 20 Oeste 0 -- -- 86
2019-11-02 12:00:00 17.2 11 Sudoeste 20 Oeste 0 -- -- 83
2019-11-02 11:00:00 16.4 11 Sudoeste 19 Sudoeste 0 -- -- 89
2019-11-02 10:00:00 15.3 9 Sudoeste 21 Sudoeste 0 -- -- 96
2019-11-02 09:00:00 15.1 8 Sudoeste 17 Oeste 0.2 -- -- 97
2019-11-02 08:00:00 15.2 4 Sudoeste 13 Sudoeste 0 -- -- 96
2019-11-02 07:00:00 15.4 8 Sudoeste 17 Oeste 0 -- -- 96
2019-11-02 06:00:00 15.5 9 Sudoeste 18 Sudoeste 0.4 -- -- 96
2019-11-02 05:00:00 15.6 10 Sudoeste 22 Oeste 0 -- -- 95
2019-11-02 04:00:00 15.9 2 Noroeste 7 Oeste 0 -- -- 96
2019-11-02 03:00:00 16 0 Calma 9 Sudoeste 0 -- -- 95
2019-11-02 02:00:00 16.1 5 Sudoeste 17 Sudoeste 0 -- -- 95
2019-11-02 01:00:00 16.1 8 Sudoeste 13 Oeste 0.4 -- -- 94
2019-11-02 00:00:00 16.3 0 Calma 17 Oeste 0 -- -- 92
2019-11-01 23:00:00 16.5 7 Oeste 13 Oeste 0 -- -- 92
2019-11-01 22:00:00 16.6 4 Oeste 14 Sudoeste 0 -- -- 92
2019-11-01 21:00:00 17 6 Sudoeste 15 Sudoeste 0 -- -- 92
2019-11-01 20:00:00 17.2 5 Sudoeste 22 Sudoeste 0.2 -- -- 92
2019-11-01 19:00:00 17.4 6 Oeste 18 Oeste 0 -- -- 93
2019-11-01 18:00:00 17.5 10 Oeste 21 Sudoeste 1 -- -- 93
2019-11-01 17:00:00 18.1 10 Oeste 30 Oeste 2 -- -- 90
2019-11-01 16:00:00 19.4 16 Oeste 36 Sudoeste 0.2 -- -- 80
2019-11-01 15:00:00 21 14 Oeste 32 Sudoeste 0 -- -- 72
2019-11-01 14:00:00 20.7 17 Sudoeste 31 Sudoeste 0 -- -- 78
2019-11-01 13:00:00 18.9 13 Sudoeste 23 Sudoeste 0 -- -- 88
2019-11-01 12:00:00 17.9 3 Sudeste 8 Sur 0 -- -- 96
2019-11-01 11:00:00 17 0 Calma 4 Noroeste 0.2 -- -- 99
2019-11-01 10:00:00 16.1 0 Calma 8 Nordeste 0 -- -- 100
2019-11-01 09:00:00 15.2 3 Norte 6 Norte 0 -- -- 100
2019-11-01 08:00:00 14.5 2 Norte 5 Nordeste 0 -- -- 99
2019-11-01 07:00:00 14.4 0 Calma 5 Norte 0 -- -- 99
2019-11-01 06:00:00 14.1 4 Norte 5 Norte 0 -- -- 99
2019-11-01 05:00:00 14.3 3 Nordeste 9 Norte 0 -- -- 99
2019-11-01 04:00:00 14.7 4 Norte 8 Norte 0 -- -- 98
2019-11-01 03:00:00 14.8 3 Norte 5 Norte 0 -- -- 98
2019-11-01 02:00:00 15.1 4 Noroeste 8 Norte 0 -- -- 98
2019-11-01 01:00:00 15.1 3 Noroeste 7 Nordeste 0 -- -- 98
2019-11-01 00:00:00 15.1 0 Calma 7 Norte 0 -- -- 97
2019-10-31 23:00:00 16 3 Norte 7 Norte 0 -- -- 97
2019-10-31 22:00:00 16.7 4 Norte 9 Norte 0 -- -- 96
2019-10-31 21:00:00 16.6 3 Norte 8 Norte 0 -- -- 95
2019-10-31 20:00:00 17.6 6 Norte 6 Norte 0 -- -- 93
2019-10-31 19:00:00 18.5 0 Calma 7 Oeste 0 -- -- 90
2019-10-31 18:00:00 18.8 3 Oeste 7 Oeste 0 -- -- 87
2019-10-31 17:00:00 19.3 3 Oeste 12 Sudoeste 0 -- -- 84
2019-10-31 16:00:00 19.9 2 Sudoeste 6 Nordeste 0 -- -- 79
2019-10-31 15:00:00 19.5 5 Este 9 Este 0 -- -- 81
2019-10-31 14:00:00 18.4 4 Este 6 Este 0 -- -- 88
2019-10-31 13:00:00 17.8 0 Calma 6 Sur 0 -- -- 90
2019-10-31 12:00:00 17.4 3 Sudoeste 7 Sudoeste 0 -- -- 93
2019-10-31 11:00:00 15.9 2 Sudeste 5 Sudeste 0 -- -- 99
2019-10-31 10:00:00 15 0 Calma 3 Nordeste 0 -- -- 99
2019-10-31 09:00:00 14.4 2 Nordeste 6 Oeste 0 -- -- 99
2019-10-31 08:00:00 14 3 Noroeste 5 Noroeste 0.2 -- -- 99
2019-10-31 07:00:00 14.1 2 Norte 4 Norte 0 -- -- 98
2019-10-31 06:00:00 14.4 2 Nordeste 4 Norte 0 -- -- 99
2019-10-31 05:00:00 14.8 2 Noroeste 4 Norte 0 -- -- 99
2019-10-31 04:00:00 15 0 Calma 4 Norte 0 -- -- 99
2019-10-31 03:00:00 15 3 Norte 6 Noroeste 0 -- -- 99
2019-10-31 02:00:00 15 4 Norte 10 Norte 0 -- -- 99
2019-10-31 01:00:00 15.1 3 Oeste 6 Norte 0 -- -- 98
2019-10-31 00:00:00 15.8 4 Norte 5 Norte 0 -- -- 98
2019-10-30 23:00:00 16.2 0 Calma 6 Oeste 0 -- -- 98
2019-10-30 22:00:00 16.4 0 Calma 4 Nordeste 0 -- -- 98
2019-10-30 21:00:00 16.4 0 Calma 6 Norte 0 -- -- 97
2019-10-30 20:00:00 16.4 0 Calma 8 Noroeste 0.6 -- -- 97
2019-10-30 19:00:00 16.4 3 Noroeste 5 Norte 0 -- -- 97
2019-10-30 18:00:00 16.4 2 Nordeste 6 Norte 2.2 -- -- 98
2019-10-30 17:00:00 16.2 6 Norte 8 Norte 3.6 -- -- 97
2019-10-30 16:00:00 16.3 0 Calma 9 Sudeste 1.2 -- -- 97
2019-10-30 15:00:00 16.2 4 Sudeste 10 Sudeste 0.4 -- -- 95
2019-10-30 14:00:00 16.4 6 Sudeste 9 Sudeste 0.2 -- -- 95
2019-10-30 13:00:00 16.6 2 Sur 6 Sudeste 0 -- -- 92
2019-10-30 12:00:00 16.2 3 Sudeste 8 Este 0.4 -- -- 94
2019-10-30 11:00:00 16 0 Calma 5 Nordeste 0 -- -- 94
2019-10-30 10:00:00 15.2 0 Calma 3 Oeste 0.2 -- -- 96
2019-10-30 09:00:00 13.9 2 Nordeste 9 Este 0 -- -- 97
2019-10-30 08:00:00 13.6 0 Calma 2 Este 0 -- -- 96
2019-10-30 07:00:00 13.9 2 Oeste 4 Sudoeste 0 -- -- 96
2019-10-30 06:00:00 13.7 0 Calma 6 Norte 0 -- -- 94
2019-10-30 05:00:00 14.1 5 Norte 6 Norte 0 -- -- 96
2019-10-30 04:00:00 14.1 3 Nordeste 6 Nordeste 0 -- -- 95
2019-10-30 03:00:00 14.3 0 Calma 6 Norte 0 -- -- 94
2019-10-30 02:00:00 14.5 3 Nordeste 6 Norte 0 -- -- 93
2019-10-30 01:00:00 15.2 2 Noroeste 9 Norte 0 -- -- 90
2019-10-30 00:00:00 15.2 0 Calma 6 Norte 0 -- -- 91
2019-10-29 23:00:00 15 4 Norte 6 Nordeste 0 -- -- 90
2019-10-29 22:00:00 15.2 2 Nordeste 10 Norte 0 -- -- 90
2019-10-29 21:00:00 14.9 9 Norte 10 Norte 0 -- -- 90
2019-10-29 20:00:00 15.4 7 Norte 11 Norte 0 -- -- 87
2019-10-29 19:00:00 16.8 3 Noroeste 5 Norte 0 -- -- 85
2019-10-29 18:00:00 18.3 3 Oeste 5 Oeste 0 -- -- 77
2019-10-29 17:00:00 18.6 0 Calma 12 Oeste 0 -- -- 71
2019-10-29 16:00:00 18.7 5 Sudoeste 18 Oeste 0 -- -- 68
2019-10-29 15:00:00 19.6 9 Oeste 24 Sudoeste 0 -- -- 64
2019-10-29 14:00:00 18.6 5 Sudoeste 15 Oeste 0 -- -- 74
2019-10-29 13:00:00 19.2 5 Sur 10 Sur 0 -- -- 73
2019-10-29 12:00:00 17.2 5 Sur 12 Sur 0 -- -- 86
2019-10-29 11:00:00 17.2 7 Sur 12 Sur 0 -- -- 85
2019-10-29 10:00:00 16.1 4 Sur 6 Sudeste 0 -- -- 88
2019-10-29 09:00:00 13.2 3 Norte 9 Norte 0 -- -- 95
2019-10-29 08:00:00 11.8 9 Norte 12 Norte 0 -- -- 96
2019-10-29 07:00:00 12.9 7 Norte 10 Norte 0 -- -- 96
2019-10-29 06:00:00 14 0 Calma 5 Norte 0 -- -- 97
2019-10-29 05:00:00 14.2 2 Este 5 Norte 0 -- -- 96
2019-10-29 04:00:00 14.4 2 Norte 5 Oeste 0 -- -- 96
2019-10-29 03:00:00 14.4 3 Norte 5 Norte 0 -- -- 96
2019-10-29 02:00:00 14.6 0 Calma 6 Norte 0.2 -- -- 95
2019-10-29 01:00:00 14.6 4 Norte 10 Noroeste 1.2 -- -- 95
2019-10-29 00:00:00 15.2 4 Oeste 6 Oeste 0 -- -- 91
2019-10-28 23:00:00 15.5 0 Calma 5 Norte 0 -- -- 88
2019-10-28 22:00:00 15.6 0 Calma 8 Norte 0 -- -- 87
2019-10-28 21:00:00 15.5 4 Norte 8 Norte 0 -- -- 86
2019-10-28 20:00:00 15.6 5 Norte 8 Norte 0 -- -- 87
2019-10-28 19:00:00 16.1 4 Norte 6 Norte 0 -- -- 84
2019-10-28 18:00:00 17.1 0 Calma 5 Sudeste 0 -- -- 77
2019-10-28 17:00:00 17.3 3 Sur 6 Sur 0 -- -- 76
2019-10-28 16:00:00 17.5 3 Este 9 Este 0 -- -- 73
2019-10-28 15:00:00 17.6 2 Este 9 Este 0 -- -- 73
2019-10-28 14:00:00 16.9 3 Sur 10 Sudeste 0 -- -- 75
2019-10-28 13:00:00 17.2 5 Sudeste 12 Sudeste 0 -- -- 73
2019-10-28 12:00:00 15.8 2 Este 6 Este 0 -- -- 83
2019-10-28 11:00:00 14.2 2 Sudeste 6 Nordeste 0 -- -- 89
2019-10-28 10:00:00 12.6 4 Nordeste 7 Este 0 -- -- 93
2019-10-28 09:00:00 11.5 4 Nordeste 9 Oeste 0 -- -- 92
2019-10-28 08:00:00 10.9 0 Calma 5 Norte 0 -- -- 91
2019-10-28 07:00:00 11.5 0 Calma 9 Norte 0 -- -- 89
2019-10-28 06:00:00 12.2 6 Norte 9 Norte 0 -- -- 85
2019-10-28 05:00:00 12.6 4 Noroeste 9 Norte 0 -- -- 81
2019-10-28 04:00:00 12.8 7 Norte 10 Norte 0 -- -- 80
2019-10-28 03:00:00 13.2 3 Oeste 9 Norte 0 -- -- 78
2019-10-28 02:00:00 14.2 2 Noroeste 9 Norte 0 -- -- 72
2019-10-28 01:00:00 14.5 5 Norte 8 Norte 0 -- -- 72
2019-10-28 00:00:00 15.8 6 Norte 10 Norte 0 -- -- 64
2019-10-27 23:00:00 15.1 8 Norte 9 Norte 0 -- -- 69
2019-10-27 22:00:00 15.3 6 Norte 10 Norte 0 -- -- 68
2019-10-27 21:00:00 15.8 7 Norte 9 Norte 0 -- -- 63
2019-10-27 20:00:00 16.2 3 Noroeste 10 Norte 0 -- -- 64
2019-10-27 19:00:00 16.5 5 Norte 12 Norte 0 -- -- 67
2019-10-27 18:00:00 17.8 9 Norte 12 Norte 0 -- -- 65
2019-10-27 17:00:00 19.1 6 Norte 8 Norte 0 -- -- 63
2019-10-27 16:00:00 20.8 3 Sudeste 12 Sudoeste 0 -- -- 48
2019-10-27 15:00:00 22.2 7 Sur 15 Sur 0 -- -- 43
2019-10-27 14:00:00 21.9 9 Sur 19 Sur 0 -- -- 49
2019-10-27 13:00:00 21.8 9 Sur 21 Sudeste 0 -- -- 48
2019-10-27 12:00:00 21.2 6 Sudoeste 12 Oeste 0 -- -- 53
2019-10-27 11:00:00 18 3 Sudoeste 5 Sudoeste 0 -- -- 65
2019-10-27 10:00:00 15.6 0 Calma 6 Nordeste 0 -- -- 70
2019-10-27 09:00:00 11.5 2 Noroeste 5 Norte 0 -- -- 87
2019-10-27 08:00:00 11.9 3 Norte 10 Norte 0 -- -- 79
2019-10-27 07:00:00 12.1 4 Norte 10 Norte 0 -- -- 78
2019-10-27 06:00:00 11.3 3 Nordeste 7 Nordeste 0 -- -- 81
2019-10-27 05:00:00 11.4 5 Norte 8 Norte 0 -- -- 82
2019-10-27 04:00:00 12.7 5 Norte 8 Noroeste 0 -- -- 75
2019-10-27 03:00:00 13.5 4 Norte 10 Norte 0 -- -- 72
2019-10-27 02:00:00 13.3 5 Norte 9 Norte 0 -- -- 74
2019-10-27 01:00:00 14.8 0 Calma 11 Norte 0 -- -- 70
2019-10-27 00:00:00 15.8 9 Norte 13 Norte 0 -- -- 66
2019-10-26 23:00:00 15.9 9 Norte 13 Norte 0 -- -- 66
2019-10-26 22:00:00 15.4 10 Norte 12 Norte 0 -- -- 68
2019-10-26 21:00:00 16 10 Norte 14 Norte 0 -- -- 67
2019-10-26 20:00:00 17.2 11 Norte 13 Norte 0 -- -- 65
2019-10-26 19:00:00 22.5 3 Sudeste 15 Sudeste 0 -- -- 46
2019-10-26 18:00:00 23.2 9 Sudeste 17 Sudeste 0 -- -- 43
2019-10-26 17:00:00 23.2 11 Sudeste 21 Sudeste 0 -- -- 43
2019-10-26 16:00:00 23.3 11 Sur 22 Sudeste 0 -- -- 45
2019-10-26 15:00:00 22.7 10 Sudeste 19 Sur 0 -- -- 48
2019-10-26 14:00:00 22.4 10 Sudeste 18 Sudeste 0 -- -- 47
2019-10-26 13:00:00 20.2 5 Sudoeste 10 Sudoeste 0 -- -- 55
2019-10-26 12:00:00 18.1 4 Sur 10 Sudoeste 0 -- -- 66
2019-10-26 11:00:00 15.2 4 Sudoeste 8 Sudoeste 0 -- -- 74
2019-10-26 10:00:00 12.2 0 Calma 4 Norte 0 -- -- 85
2019-10-26 09:00:00 9.4 0 Calma 8 Norte 0 -- -- 87
2019-10-26 08:00:00 10.8 3 Noroeste 8 Norte 0 -- -- 83
2019-10-26 07:00:00 10.8 5 Norte 8 Norte 0 -- -- 84
2019-10-26 06:00:00 10.8 2 Norte 8 Norte 0 -- -- 81
2019-10-26 05:00:00 12.6 4 Noroeste 9 Norte 0 -- -- 74
2019-10-26 04:00:00 13 3 Noroeste 10 Norte 0 -- -- 71
2019-10-26 03:00:00 13.4 7 Norte 10 Norte 0 -- -- 70
2019-10-26 02:00:00 14.8 4 Norte 10 Norte 0 -- -- 63
2019-10-26 01:00:00 15.1 4 Norte 7 Norte 0 -- -- 62
2019-10-26 00:00:00 15.2 3 Norte 11 Norte 0 -- -- 62
2019-10-25 23:00:00 14.9 7 Norte 13 Norte 0 -- -- 65
2019-10-25 22:00:00 14.5 8 Norte 13 Norte 0 -- -- 68
2019-10-25 21:00:00 15.3 10 Norte 13 Norte 0 -- -- 66
2019-10-25 20:00:00 16.1 12 Norte 13 Norte 0 -- -- 67
2019-10-25 19:00:00 20.8 5 Sudeste 13 Este 0 -- -- 49
2019-10-25 18:00:00 21.7 5 Sudeste 15 Sudeste 0 -- -- 49
2019-10-25 17:00:00 22.1 6 Sudeste 15 Sudeste 0 -- -- 46
2019-10-25 16:00:00 21.7 9 Sur 20 Sur 0 -- -- 45
2019-10-25 15:00:00 20.7 10 Sur 16 Sudeste 0 -- -- 45
2019-10-25 14:00:00 20 8 Sur 16 Sur 0 -- -- 54
2019-10-25 13:00:00 18.2 4 Sudeste 9 Sur 0 -- -- 63
2019-10-25 12:00:00 15.8 4 Sur 7 Sur 0 -- -- 73
2019-10-25 11:00:00 13.2 2 Nordeste 4 Este 0 -- -- 78
2019-10-25 10:00:00 10.5 0 Calma 6 Norte 0 -- -- 92
2019-10-25 09:00:00 8.2 4 Norte 9 Norte 0 -- -- 95
2019-10-25 08:00:00 8.1 7 Norte 9 Norte 0 -- -- 95
2019-10-25 07:00:00 8.1 0 Calma 8 Norte 0 -- -- 95
2019-10-25 06:00:00 8.7 0 Calma 8 Norte 0 -- -- 92
2019-10-25 05:00:00 9 3 Norte 8 Norte 0 -- -- 92
2019-10-25 04:00:00 9.5 3 Norte 9 Norte 0 -- -- 91
2019-10-25 03:00:00 10 0 Calma 10 Norte 0 -- -- 88
2019-10-25 02:00:00 10.3 5 Noroeste 8 Norte 0 -- -- 90
2019-10-25 01:00:00 10.4 5 Norte 9 Norte 0 -- -- 88
2019-10-25 00:00:00 11 6 Norte 11 Norte 0 -- -- 88
2019-10-24 23:00:00 11.9 0 Calma 0 Calma 0 -- -- 85
2019-10-24 22:00:00 13.1 0 Calma 6 Norte 0 -- -- 80
2019-10-24 21:00:00 13.3 5 Norte 10 Norte 0 -- -- 79
2019-10-24 20:00:00 15.8 4 Norte 12 Sudoeste 0 -- -- 71
2019-10-24 19:00:00 18.4 8 Sudoeste 14 Sudoeste 0 -- -- 57
2019-10-24 18:00:00 19.4 7 Sudoeste 15 Sudoeste 0 -- -- 55
2019-10-24 17:00:00 19.6 9 Sur 16 Sudoeste 0 -- -- 56
2019-10-24 16:00:00 19.4 9 Sudoeste 16 Sur 0 -- -- 54
2019-10-24 15:00:00 18.7 6 Sur 15 Sur 0 -- -- 55
2019-10-24 14:00:00 17.6 6 Sudoeste 14 Sur 0 -- -- 57
2019-10-24 13:00:00 16.1 8 Sur 15 Sur 0 -- -- 65
2019-10-24 12:00:00 15.5 3 Sudeste 9 Sur 0 -- -- 63
2019-10-24 11:00:00 11.9 3 Sur 8 Sur 0 -- -- 77
2019-10-24 10:00:00 9.6 3 Nordeste 9 Norte 0 -- -- 84
2019-10-24 09:00:00 6.5 2 Sudeste 9 Nordeste 0 -- -- 93
2019-10-24 08:00:00 7.8 3 Noroeste 14 Oeste 0 -- -- 86
2019-10-24 07:00:00 7.9 6 Oeste 19 Norte 0 -- -- 86
2019-10-24 06:00:00 8.7 5 Noroeste 13 Noroeste 0 -- -- 83
2019-10-24 05:00:00 9.3 6 Noroeste 18 Noroeste 0 -- -- 81
2019-10-24 04:00:00 8.9 3 Oeste 10 Sudoeste 0 -- -- 86
2019-10-24 03:00:00 10 6 Noroeste 16 Noroeste 0 -- -- 80
2019-10-24 02:00:00 9.9 4 Noroeste 14 Oeste 0 -- -- 82
2019-10-24 01:00:00 9.2 2 Oeste 6 Noroeste 0 -- -- 90
2019-10-24 00:00:00 10 2 Sudoeste 7 Sur 0 -- -- 87
2019-10-23 23:00:00 10.5 4 Sur 14 Noroeste 0 -- -- 85
2019-10-23 22:00:00 11 8 Noroeste 19 Noroeste 0 -- -- 78
2019-10-23 21:00:00 10.9 7 Noroeste 19 Sudoeste 0 -- -- 78
2019-10-23 20:00:00 10.9 8 Noroeste 25 Noroeste 0 -- -- 76
2019-10-23 19:00:00 11.2 8 Noroeste 26 Noroeste 0.2 -- -- 82
2019-10-23 18:00:00 11.4 6 Oeste 20 Oeste 0.2 -- -- 82
2019-10-23 17:00:00 11.4 4 Oeste 25 Noroeste 0.2 -- -- 82
2019-10-23 16:00:00 12 17 Noroeste 33 Norte 0 -- -- 75
2019-10-23 15:00:00 11.8 14 Noroeste 30 Noroeste 0 -- -- 77
2019-10-23 14:00:00 11.4 12 Noroeste 31 Noroeste 0 -- -- 78
2019-10-23 13:00:00 10.8 10 Oeste 19 Oeste 0 -- -- 83
2019-10-23 12:00:00 10.2 9 Oeste 23 Sudoeste 0.4 -- -- 87
2019-10-23 11:00:00 9.7 8 Sudoeste 17 Sudoeste 0.6 -- -- 88
2019-10-23 10:00:00 10 5 Sudoeste 15 Oeste 0.4 -- -- 81
2019-10-23 09:00:00 10.4 5 Sudoeste 14 Oeste 0 -- -- 76
2019-10-23 08:00:00 10.5 6 Oeste 15 Sudoeste 0 -- -- 74
2019-10-23 07:00:00 10.2 0 Calma 13 Sudoeste 0 -- -- 77
2019-10-23 06:00:00 10.2 3 Sudoeste 20 Noroeste 0 -- -- 79
2019-10-23 05:00:00 10 7 Sudoeste 14 Sudoeste 0 -- -- 80
2019-10-23 04:00:00 9.7 6 Oeste 15 Oeste 0.2 -- -- 84
2019-10-23 03:00:00 10.4 4 Noroeste 11 Norte 0 -- -- 81
2019-10-23 02:00:00 11 3 Oeste 17 Nordeste 0 -- -- 73
2019-10-23 01:00:00 11.4 5 Este 12 Este 0 -- -- 71
2019-10-23 00:00:00 12.2 5 Sur 22 Sudoeste 0 -- -- 65
2019-10-22 23:00:00 12.5 5 Este 30 Este 0 -- -- 63
2019-10-22 22:00:00 12.6 7 Este 42 Nordeste 0 -- -- 58
2019-10-22 21:00:00 12.7 22 Norte 46 Nordeste 0 -- -- 55
2019-10-22 20:00:00 13.6 15 Norte 46 Norte 0 -- -- 56
2019-10-22 19:00:00 15.1 26 Norte 45 Nordeste 0 -- -- 50
2019-10-22 18:00:00 15.6 26 Norte 48 Norte 0 -- -- 51
2019-10-22 17:00:00 16 23 Nordeste 53 Norte 0 -- -- 52
2019-10-22 16:00:00 15.5 27 Nordeste 51 Norte 0 -- -- 56
2019-10-22 15:00:00 15 18 Norte 45 Norte 0 -- -- 57
2019-10-22 14:00:00 13.4 20 Norte 40 Nordeste 0 -- -- 62
2019-10-22 13:00:00 13.2 15 Nordeste 34 Nordeste 0 -- -- 60
2019-10-22 12:00:00 13.5 22 Nordeste 39 Este 0 -- -- 56
2019-10-22 11:00:00 13.1 7 Nordeste 36 Nordeste 0 -- -- 57
2019-10-22 10:00:00 10.6 16 Nordeste 34 Nordeste 0 -- -- 64
2019-10-22 09:00:00 7.2 3 Sudoeste 10 Norte 0 -- -- 76
2019-10-22 08:00:00 6.2 3 Oeste 7 Oeste 0 -- -- 82
2019-10-22 07:00:00 6.9 0 Calma 8 Sudoeste 0 -- -- 78
2019-10-22 06:00:00 9.3 2 Nordeste 11 Nordeste 0 -- -- 64
2019-10-22 05:00:00 9.6 3 Este 13 Nordeste 0 -- -- 66
2019-10-22 04:00:00 10 5 Nordeste 12 Norte 0 -- -- 65
2019-10-22 03:00:00 10 8 Nordeste 17 Nordeste 0 -- -- 64
2019-10-22 02:00:00 10.8 9 Norte 22 Nordeste 0 -- -- 60
2019-10-22 01:00:00 11.2 14 Nordeste 24 Nordeste 0 -- -- 60
2019-10-22 00:00:00 10.5 9 Norte 28 Norte 0.2 -- -- 67
2019-10-21 23:00:00 10 9 Norte 18 Norte 0.2 -- -- 79
2019-10-21 22:00:00 10.5 6 Sur 17 Sur 0 -- -- 75
2019-10-21 21:00:00 11.8 3 Norte 14 Nordeste 0 -- -- 68
2019-10-21 20:00:00 11.8 5 Norte 13 Norte 0 -- -- 70
2019-10-21 19:00:00 15.3 0 Calma 8 Sudoeste 0 -- -- 60
2019-10-21 18:00:00 16.9 8 Sudoeste 17 Sudoeste 0 -- -- 46
2019-10-21 17:00:00 17.1 6 Sudoeste 17 Sudoeste 0 -- -- 50
2019-10-21 16:00:00 16.9 4 Sur 15 Sudoeste 0 -- -- 50
2019-10-21 15:00:00 15.6 7 Sudoeste 15 Sudoeste 0 -- -- 53
2019-10-21 14:00:00 15.9 7 Sudeste 14 Sudeste 0 -- -- 57
2019-10-21 13:00:00 14.5 6 Sur 12 Sur 0 -- -- 58
2019-10-21 12:00:00 12.9 4 Sur 6 Sudoeste 0 -- -- 66
2019-10-21 11:00:00 11 3 Sudeste 6 Sur 0 -- -- 77
2019-10-21 10:00:00 8.4 0 Calma 7 Norte 0 -- -- 87
2019-10-21 09:00:00 5.8 5 Norte 6 Norte 0 -- -- 91
2019-10-21 08:00:00 5.6 4 Norte 9 Norte 0 -- -- 90
2019-10-21 07:00:00 6.5 0 Calma 4 Nordeste 0 -- -- 86
2019-10-21 06:00:00 6.6 2 Norte 7 Norte 0 -- -- 85
2019-10-21 05:00:00 7.1 0 Calma 6 Oeste 0 -- -- 84
2019-10-21 04:00:00 9 0 Calma 15 Nordeste 0 -- -- 77
2019-10-21 03:00:00 9.9 4 Norte 18 Nordeste 0 -- -- 73
2019-10-21 02:00:00 10 7 Norte 13 Norte 0 -- -- 72
2019-10-21 01:00:00 10.8 5 Norte 23 Norte 0 -- -- 69
2019-10-21 00:00:00 10.9 5 Norte 14 Norte 0 -- -- 70
2019-10-20 23:00:00 11.1 4 Noroeste 17 Sudoeste 0 -- -- 71
2019-10-20 22:00:00 10.7 4 Noroeste 12 Noroeste 0 -- -- 72
2019-10-20 21:00:00 10.9 2 Sudoeste 15 Nordeste 0 -- -- 77
2019-10-20 20:00:00 11.7 4 Norte 13 Noroeste 0 -- -- 75
2019-10-20 19:00:00 13 10 Noroeste 17 Noroeste 0 -- -- 67
2019-10-20 18:00:00 15.6 8 Sur 14 Sur 0 -- -- 60
2019-10-20 17:00:00 14.3 7 Nordeste 22 Nordeste 0 -- -- 67
2019-10-20 16:00:00 14.6 6 Noroeste 21 Norte 0 -- -- 60
2019-10-20 15:00:00 15.3 9 Norte 22 Noroeste 0 -- -- 56
2019-10-20 14:00:00 14.1 10 Noroeste 33 Norte 0 -- -- 64
2019-10-20 13:00:00 13.5 16 Norte 31 Norte 0 -- -- 63
2019-10-20 12:00:00 11.7 9 Norte 26 Norte 0 -- -- 72
2019-10-20 11:00:00 11.1 8 Noroeste 27 Noroeste 0 -- -- 76
2019-10-20 10:00:00 9.1 4 Sudoeste 18 Sudoeste 0 -- -- 87
2019-10-20 09:00:00 8.6 3 Sudoeste 12 Oeste 0 -- -- 87
2019-10-20 08:00:00 8.8 3 Sur 9 Sudoeste 0 -- -- 86
2019-10-20 07:00:00 9.5 7 Oeste 19 Oeste 0 -- -- 84
2019-10-20 06:00:00 9.4 4 Oeste 10 Noroeste 0 -- -- 94
2019-10-20 05:00:00 9.3 2 Nordeste 4 Nordeste 0 -- -- 97
2019-10-20 04:00:00 9.4 0 Calma 3 Norte 0 -- -- 97
2019-10-20 03:00:00 9.2 0 Calma 4 Norte 0 -- -- 98
2019-10-20 02:00:00 8.9 0 Calma 9 Norte 0 -- -- 97
2019-10-20 01:00:00 8.2 2 Nordeste 9 Norte 0 -- -- 96
2019-10-20 00:00:00 8.7 4 Norte 10 Norte 0 -- -- 96
2019-10-19 23:00:00 9.7 0 Calma 5 Nordeste 0 -- -- 94
2019-10-19 22:00:00 10.4 2 Noroeste 10 Oeste 0 -- -- 92
2019-10-19 21:00:00 12.2 3 Noroeste 24 Oeste 0 -- -- 88
2019-10-19 20:00:00 14.7 7 Oeste 18 Noroeste 0 -- -- 94
2019-10-19 19:00:00 14.9 12 Sudoeste 24 Sudoeste 0.2 -- -- 96
2019-10-19 18:00:00 14 8 Sudoeste 35 Sudeste 8.2 -- -- 98
2019-10-19 17:00:00 13.7 16 Sudeste 36 Sudeste 3.6 -- -- 96
2019-10-19 16:00:00 13.2 10 Sudeste 22 Sudeste 1.4 -- -- 97
2019-10-19 15:00:00 12.9 12 Sudeste 23 Sudeste 1.6 -- -- 97
2019-10-19 14:00:00 12.8 11 Sur 21 Sur 1 -- -- 98
2019-10-19 13:00:00 12.8 12 Sur 21 Sur 0 -- -- 96
2019-10-19 12:00:00 12.3 11 Sudeste 20 Sur 0 -- -- 96
2019-10-19 11:00:00 12.1 7 Sudeste 19 Sudeste 0.4 -- -- 95
2019-10-19 10:00:00 12.3 7 Sur 14 Sur 0 -- -- 93
2019-10-19 09:00:00 12 4 Sur 11 Sudeste 0.2 -- -- 94
2019-10-19 08:00:00 12.2 6 Sur 15 Sur 0 -- -- 93
2019-10-19 07:00:00 12.3 3 Sudeste 8 Sur 0 -- -- 92
2019-10-19 06:00:00 12.4 2 Sur 6 Sudoeste 0 -- -- 92
2019-10-19 05:00:00 12.4 0 Calma 8 Sudeste 0 -- -- 91
2019-10-19 04:00:00 12.8 0 Calma 4 Oeste 0 -- -- 88
2019-10-19 03:00:00 12.7 0 Calma 5 Norte 0 -- -- 89
2019-10-19 02:00:00 12.8 2 Norte 5 Norte 0 -- -- 88
2019-10-19 01:00:00 13 0 Calma 4 Nordeste 0 -- -- 86
2019-10-19 00:00:00 12.5 4 Norte 10 Norte 0 -- -- 86
2019-10-18 23:00:00 12.2 8 Norte 10 Norte 0 -- -- 85
2019-10-18 22:00:00 14 0 Calma 6 Oeste 0 -- -- 78
2019-10-18 21:00:00 15.5 2 Sudoeste 19 Sudoeste 0 -- -- 70
2019-10-18 20:00:00 16.5 12 Oeste 23 Sudoeste 0 -- -- 64
2019-10-18 19:00:00 17.9 3 Sudoeste 18 Sudoeste 0 -- -- 65
2019-10-18 18:00:00 19.3 15 Sudoeste 26 Sudoeste 0 -- -- 57
2019-10-18 17:00:00 20.1 10 Sudoeste 19 Sudoeste 0 -- -- 56
2019-10-18 16:00:00 18.7 2 Sudoeste 10 Sur 0 -- -- 64
2019-10-18 15:00:00 18 4 Sur 9 Nordeste 0 -- -- 69
2019-10-18 14:00:00 18.5 5 Sudoeste 10 Sudoeste 0 -- -- 71
2019-10-18 13:00:00 17.2 7 Sudoeste 11 Sudoeste 0 -- -- 80
2019-10-18 12:00:00 16.9 5 Sur 14 Sur 0 -- -- 80
2019-10-18 11:00:00 16.5 6 Sur 11 Sudeste 0 -- -- 91
2019-10-18 10:00:00 16.3 3 Sur 6 Sur 0 -- -- 96
2019-10-18 09:00:00 16.1 0 Calma 4 Este 0 -- -- 97
2019-10-18 08:00:00 16.3 2 Nordeste 8 Sudeste 0 -- -- 97
2019-10-18 07:00:00 16.5 0 Calma 6 Sudeste 0 -- -- 96
2019-10-18 06:00:00 16.5 3 Sudoeste 10 Sur 0 -- -- 97
2019-10-18 05:00:00 16.7 5 Sur 16 Sudoeste 0 -- -- 97
2019-10-18 04:00:00 16.7 11 Sudoeste 21 Sudoeste 1 -- -- 98
2019-10-18 03:00:00 16.7 4 Sur 18 Sudoeste 0.6 -- -- 98
2019-10-18 02:00:00 16.7 9 Sudoeste 23 Sudoeste 1.8 -- -- 98
2019-10-18 01:00:00 16.8 6 Sur 15 Sudoeste 0.2 -- -- 97
2019-10-18 00:00:00 17 7 Sudoeste 17 Sur 0.2 -- -- 97
2019-10-17 23:00:00 16.8 0 Calma 6 Sudeste 0.2 -- -- 97
2019-10-17 22:00:00 16.8 0 Calma 8 Sudoeste 0 -- -- 98
2019-10-17 21:00:00 16.7 7 Sudoeste 15 Sur 0.8 -- -- 98
2019-10-17 20:00:00 16.4 7 Sur 18 Sur 1 -- -- 98
2019-10-17 19:00:00 16.1 11 Sudeste 19 Sudeste 0.2 -- -- 97
2019-10-17 18:00:00 16 4 Sudoeste 11 Sudeste 1.4 -- -- 96
2019-10-17 17:00:00 15.8 0 Calma 4 Este 2 -- -- 96
2019-10-17 16:00:00 15.6 0 Calma 6 Sudeste 1.4 -- -- 96
2019-10-17 15:00:00 15.3 0 Calma 8 Sur 0.8 -- -- 96
2019-10-17 14:00:00 15 3 Sur 7 Sudeste 0.4 -- -- 96
2019-10-17 13:00:00 14.8 4 Sur 8 Sur 0.2 -- -- 96
2019-10-17 12:00:00 14.5 3 Sudoeste 6 Sudoeste 0.2 -- -- 96
2019-10-17 11:00:00 14.2 0 Calma 4 Sudeste 0.8 -- -- 96
2019-10-17 10:00:00 13.8 0 Calma 3 Sudoeste 1 -- -- 96
2019-10-17 09:00:00 13.7 0 Calma 7 Este 1.4 -- -- 97
2019-10-17 08:00:00 13.8 0 Calma 5 Nordeste 1.4 -- -- 97
2019-10-17 07:00:00 13.6 3 Nordeste 6 Este 3.8 -- -- 97
2019-10-17 06:00:00 13.6 3 Este 5 Este 5.8 -- -- 96
2019-10-17 05:00:00 13.6 0 Calma 6 Noroeste 3.6 -- -- 94
2019-10-17 04:00:00 14.5 0 Calma 7 Sudoeste 0 -- -- 85
2019-10-17 03:00:00 14.5 2 Este 5 Sudoeste 0 -- -- 85
2019-10-17 02:00:00 14.5 0 Calma 4 Sudeste 0 -- -- 82
2019-10-17 01:00:00 14.8 0 Calma 3 Noroeste 0 -- -- 80
2019-10-17 00:00:00 15 3 Este 5 Nordeste 0 -- -- 78
2019-10-16 23:00:00 14.8 3 Nordeste 5 Nordeste 0 -- -- 77
2019-10-16 22:00:00 15.3 0 Calma 3 Nordeste 0 -- -- 75
2019-10-16 21:00:00 15.6 2 Nordeste 8 Oeste 0 -- -- 73
2019-10-16 20:00:00 16.3 3 Oeste 10 Sudoeste 0 -- -- 68
2019-10-16 19:00:00 16.8 5 Oeste 17 Sudoeste 0 -- -- 65
2019-10-16 18:00:00 17.1 9 Sudoeste 21 Oeste 0 -- -- 60
2019-10-16 17:00:00 17.1 9 Sudoeste 18 Sudoeste 0 -- -- 59
2019-10-16 16:00:00 17.4 8 Sur 17 Sur 0 -- -- 59
2019-10-16 15:00:00 16.2 6 Sur 18 Sudoeste 0 -- -- 65
2019-10-16 14:00:00 16.2 8 Sur 16 Sudoeste 0 -- -- 69
2019-10-16 13:00:00 14.2 5 Sudoeste 17 Sur 0 -- -- 77
2019-10-16 12:00:00 12.4 4 Sur 8 Sur 0 -- -- 82
2019-10-16 11:00:00 11.8 4 Sudoeste 7 Sudoeste 0 -- -- 84
2019-10-16 10:00:00 11 2 Sur 8 Norte 0 -- -- 91
2019-10-16 09:00:00 8.1 4 Norte 10 Norte 0 -- -- 95
2019-10-16 08:00:00 8.2 8 Norte 10 Norte 0 -- -- 94
2019-10-16 07:00:00 8.2 6 Norte 10 Norte 0 -- -- 93
2019-10-16 06:00:00 8.3 6 Norte 8 Norte 0 -- -- 92
2019-10-16 05:00:00 8.9 7 Norte 10 Norte 0 -- -- 90
2019-10-16 04:00:00 9.4 8 Norte 10 Norte 0 -- -- 87
2019-10-16 03:00:00 10 6 Norte 9 Norte 0 -- -- 84
2019-10-16 02:00:00 10.1 6 Norte 8 Norte 0 -- -- 84
2019-10-16 01:00:00 10.6 6 Norte 10 Norte 0 -- -- 81
2019-10-16 00:00:00 10.8 6 Norte 11 Norte 0 -- -- 80
2019-10-15 23:00:00 11.5 9 Norte 11 Norte 0 -- -- 78
2019-10-15 22:00:00 12.5 6 Norte 9 Norte 0 -- -- 75
2019-10-15 21:00:00 12.5 8 Norte 11 Norte 0 -- -- 77
2019-10-15 20:00:00 14.1 6 Norte 9 Norte 0 -- -- 73
2019-10-15 19:00:00 16.2 0 Calma 11 Sur 0 -- -- 60
2019-10-15 18:00:00 16.1 5 Oeste 15 Sudoeste 0 -- -- 59
2019-10-15 17:00:00 17 8 Oeste 19 Sudoeste 0 -- -- 56
2019-10-15 16:00:00 15.7 12 Sudoeste 22 Sudoeste 0 -- -- 62
2019-10-15 15:00:00 16.9 8 Sur 17 Sudeste 0 -- -- 53
2019-10-15 14:00:00 16.1 8 Sudoeste 14 Sur 0 -- -- 55
2019-10-15 13:00:00 15.1 6 Sur 12 Sudoeste 0 -- -- 61
2019-10-15 12:00:00 14 4 Sudeste 8 Sudeste 0 -- -- 61
2019-10-15 11:00:00 11.4 2 Sur 5 Sudoeste 0 -- -- 77
2019-10-15 10:00:00 8.3 0 Calma 10 Norte 0 -- -- 91
2019-10-15 09:00:00 5.4 5 Norte 8 Norte 0 -- -- 95
2019-10-15 08:00:00 5.5 3 Norte 7 Norte 0 -- -- 94
2019-10-15 07:00:00 5 2 Nordeste 5 Norte 0 -- -- 94
2019-10-15 06:00:00 5.6 4 Oeste 14 Norte 0 -- -- 93
2019-10-15 05:00:00 6.8 8 Norte 12 Norte 0 -- -- 91
2019-10-15 04:00:00 6.5 5 Norte 11 Norte 0 -- -- 91
2019-10-15 03:00:00 6.9 5 Norte 10 Norte 0 -- -- 88
2019-10-15 02:00:00 7.1 3 Nordeste 12 Norte 0 -- -- 87
2019-10-15 01:00:00 7.2 8 Norte 14 Noroeste 0 -- -- 84
2019-10-15 00:00:00 9.1 3 Sudeste 17 Noroeste 0 -- -- 74
2019-10-14 23:00:00 9.1 7 Oeste 15 Oeste 0 -- -- 74
2019-10-14 22:00:00 9.8 7 Noroeste 14 Noroeste 0 -- -- 69
2019-10-14 21:00:00 10.5 6 Noroeste 15 Noroeste 0 -- -- 74
2019-10-14 20:00:00 12.7 9 Noroeste 21 Oeste 0 -- -- 63
2019-10-14 19:00:00 14 5 Oeste 22 Oeste 0.2 -- -- 70
2019-10-14 18:00:00 15.4 13 Oeste 27 Oeste 0 -- -- 62
2019-10-14 17:00:00 13.9 11 Oeste 33 Oeste 0 -- -- 72
2019-10-14 16:00:00 14.6 6 Sudoeste 17 Oeste 0.4 -- -- 80
2019-10-14 15:00:00 12.2 4 Oeste 16 Sudoeste 2.8 -- -- 93
2019-10-14 14:00:00 12.3 3 Noroeste 14 Sudoeste 5.2 -- -- 93
2019-10-14 13:00:00 12.8 7 Sur 14 Sudeste 4.4 -- -- 94
2019-10-14 12:00:00 13.2 8 Sudoeste 22 Sudoeste 0 -- -- 86
2019-10-14 11:00:00 13.6 10 Sudoeste 18 Sudoeste 0 -- -- 81
2019-10-14 10:00:00 12.7 6 Sudoeste 13 Sudoeste 0 -- -- 94
2019-10-14 09:00:00 12 3 Sudoeste 9 Oeste 0 -- -- 96
2019-10-14 08:00:00 11.9 7 Sudoeste 16 Sudoeste 0.4 -- -- 96
2019-10-14 07:00:00 11.9 4 Sudeste 42 Sudoeste 13.2 -- -- 94
2019-10-14 06:00:00 15.1 11 Sudeste 18 Este 0 -- -- 86
2019-10-14 05:00:00 14.3 4 Nordeste 6 Nordeste 0 -- -- 80
2019-10-14 04:00:00 14.5 2 Sudeste 6 Oeste 0 -- -- 77
2019-10-14 03:00:00 14.3 0 Calma 10 Norte 0 -- -- 77
2019-10-14 02:00:00 14.6 6 Norte 8 Norte 0 -- -- 75
2019-10-14 01:00:00 14.6 4 Este 18 Sudoeste 0 -- -- 73
2019-10-14 00:00:00 16 5 Norte 11 Norte 0 -- -- 68